sensor_id;sensor_type;location;lat;lon;timestamp;P1;durP1;ratioP1;P2;durP2;ratioP2
65477;SDS011;53678;39.642;22.430;2023-06-24T00:00:40;9.73;;;6.80;;
65477;SDS011;53678;39.642;22.430;2023-06-24T00:03:05;12.55;;;6.72;;
65477;SDS011;53678;39.642;22.430;2023-06-24T00:05:33;16.77;;;6.85;;
65477;SDS011;53678;39.642;22.430;2023-06-24T00:07:59;9.73;;;6.72;;
65477;SDS011;53678;39.642;22.430;2023-06-24T00:10:27;11.63;;;6.18;;
65477;SDS011;53678;39.642;22.430;2023-06-24T00:12:54;12.90;;;6.50;;
65477;SDS011;53678;39.642;22.430;2023-06-24T00:15:20;10.35;;;6.38;;
65477;SDS011;53678;39.642;22.430;2023-06-24T00:17:46;13.82;;;7.00;;
65477;SDS011;53678;39.642;22.430;2023-06-24T00:20:12;7.80;;;6.03;;
65477;SDS011;53678;39.642;22.430;2023-06-24T00:22:39;14.80;;;6.40;;
65477;SDS011;53678;39.642;22.430;2023-06-24T00:25:09;7.95;;;5.75;;
65477;SDS011;53678;39.642;22.430;2023-06-24T00:27:35;8.60;;;6.25;;
65477;SDS011;53678;39.642;22.430;2023-06-24T00:30:01;12.48;;;6.60;;
65477;SDS011;53678;39.642;22.430;2023-06-24T00:32:26;16.40;;;7.35;;
65477;SDS011;53678;39.642;22.430;2023-06-24T00:34:52;13.70;;;7.10;;
65477;SDS011;53678;39.642;22.430;2023-06-24T00:37:18;13.73;;;7.97;;
65477;SDS011;53678;39.642;22.430;2023-06-24T00:39:43;13.65;;;7.00;;
65477;SDS011;53678;39.642;22.430;2023-06-24T00:42:09;12.63;;;8.00;;
65477;SDS011;53678;39.642;22.430;2023-06-24T00:44:37;14.73;;;7.90;;
65477;SDS011;53678;39.642;22.430;2023-06-24T00:47:04;11.50;;;6.55;;
65477;SDS011;53678;39.642;22.430;2023-06-24T00:49:32;13.70;;;7.82;;
65477;SDS011;53678;39.642;22.430;2023-06-24T00:51:57;13.15;;;7.63;;
65477;SDS011;53678;39.642;22.430;2023-06-24T00:54:26;7.82;;;6.78;;
65477;SDS011;53678;39.642;22.430;2023-06-24T00:56:56;8.63;;;6.75;;
65477;SDS011;53678;39.642;22.430;2023-06-24T00:59:25;11.65;;;6.82;;
65477;SDS011;53678;39.642;22.430;2023-06-24T01:01:55;13.43;;;6.57;;
65477;SDS011;53678;39.642;22.430;2023-06-24T01:04:21;11.15;;;7.22;;
65477;SDS011;53678;39.642;22.430;2023-06-24T01:06:46;10.73;;;6.43;;
65477;SDS011;53678;39.642;22.430;2023-06-24T01:09:12;8.95;;;6.30;;
65477;SDS011;53678;39.642;22.430;2023-06-24T01:11:38;10.52;;;6.32;;
65477;SDS011;53678;39.642;22.430;2023-06-24T01:14:04;10.23;;;6.60;;
65477;SDS011;53678;39.642;22.430;2023-06-24T01:19:33;9.77;;;6.38;;
65477;SDS011;53678;39.642;22.430;2023-06-24T01:28:04;9.60;;;6.50;;
65477;SDS011;53678;39.642;22.430;2023-06-24T01:30:43;9.50;;;6.35;;
65477;SDS011;53678;39.642;22.430;2023-06-24T01:33:22;14.07;;;7.22;;
65477;SDS011;53678;39.642;22.430;2023-06-24T01:35:53;15.88;;;7.57;;
65477;SDS011;53678;39.642;22.430;2023-06-24T01:39:02;11.38;;;6.90;;
65477;SDS011;53678;39.642;22.430;2023-06-24T01:41:12;10.27;;;6.70;;
65477;SDS011;53678;39.642;22.430;2023-06-24T01:43:42;11.05;;;6.80;;
65477;SDS011;53678;39.642;22.430;2023-06-24T01:46:09;13.70;;;7.32;;
65477;SDS011;53678;39.642;22.430;2023-06-24T01:48:37;9.77;;;6.22;;
65477;SDS011;53678;39.642;22.430;2023-06-24T01:51:08;13.73;;;7.55;;
65477;SDS011;53678;39.642;22.430;2023-06-24T01:53:39;12.45;;;7.90;;
65477;SDS011;53678;39.642;22.430;2023-06-24T01:56:08;16.52;;;8.10;;
65477;SDS011;53678;39.642;22.430;2023-06-24T01:58:36;14.30;;;8.10;;
65477;SDS011;53678;39.642;22.430;2023-06-24T02:01:03;16.67;;;8.95;;
65477;SDS011;53678;39.642;22.430;2023-06-24T02:03:30;15.25;;;8.73;;
65477;SDS011;53678;39.642;22.430;2023-06-24T02:05:58;15.40;;;9.13;;
65477;SDS011;53678;39.642;22.430;2023-06-24T02:08:24;14.63;;;8.88;;
65477;SDS011;53678;39.642;22.430;2023-06-24T02:10:54;19.00;;;10.20;;
65477;SDS011;53678;39.642;22.430;2023-06-24T02:13:20;19.35;;;10.13;;
65477;SDS011;53678;39.642;22.430;2023-06-24T02:15:48;13.30;;;9.25;;
65477;SDS011;53678;39.642;22.430;2023-06-24T02:18:15;12.68;;;9.00;;
65477;SDS011;53678;39.642;22.430;2023-06-24T02:20:43;17.63;;;9.95;;
65477;SDS011;53678;39.642;22.430;2023-06-24T02:23:09;17.35;;;10.00;;
65477;SDS011;53678;39.642;22.430;2023-06-24T02:25:37;11.43;;;8.30;;
65477;SDS011;53678;39.642;22.430;2023-06-24T02:28:04;13.48;;;9.30;;
65477;SDS011;53678;39.642;22.430;2023-06-24T02:30:34;13.60;;;9.82;;
65477;SDS011;53678;39.642;22.430;2023-06-24T02:33:01;12.82;;;9.95;;
65477;SDS011;53678;39.642;22.430;2023-06-24T02:35:27;21.27;;;10.77;;
65477;SDS011;53678;39.642;22.430;2023-06-24T02:37:55;12.93;;;9.23;;
65477;SDS011;53678;39.642;22.430;2023-06-24T02:40:20;19.42;;;8.82;;
65477;SDS011;53678;39.642;22.430;2023-06-24T02:42:46;15.45;;;9.95;;
65477;SDS011;53678;39.642;22.430;2023-06-24T02:45:13;19.10;;;10.07;;
65477;SDS011;53678;39.642;22.430;2023-06-24T02:47:40;18.30;;;9.95;;
65477;SDS011;53678;39.642;22.430;2023-06-24T02:50:09;19.73;;;10.68;;
65477;SDS011;53678;39.642;22.430;2023-06-24T02:52:36;17.95;;;8.80;;
65477;SDS011;53678;39.642;22.430;2023-06-24T02:55:07;19.67;;;9.80;;
65477;SDS011;53678;39.642;22.430;2023-06-24T02:57:49;16.70;;;8.52;;
65477;SDS011;53678;39.642;22.430;2023-06-24T03:00:38;13.25;;;8.10;;
65477;SDS011;53678;39.642;22.430;2023-06-24T03:03:07;14.98;;;8.25;;
65477;SDS011;53678;39.642;22.430;2023-06-24T03:05:36;15.40;;;9.27;;
65477;SDS011;53678;39.642;22.430;2023-06-24T03:08:03;14.60;;;9.05;;
65477;SDS011;53678;39.642;22.430;2023-06-24T03:10:30;11.50;;;8.38;;
65477;SDS011;53678;39.642;22.430;2023-06-24T03:12:56;18.63;;;10.43;;
65477;SDS011;53678;39.642;22.430;2023-06-24T03:15:30;18.88;;;10.25;;
65477;SDS011;53678;39.642;22.430;2023-06-24T03:17:57;17.33;;;10.70;;
65477;SDS011;53678;39.642;22.430;2023-06-24T03:20:23;21.05;;;11.13;;
65477;SDS011;53678;39.642;22.430;2023-06-24T03:22:50;16.13;;;9.55;;
65477;SDS011;53678;39.642;22.430;2023-06-24T03:25:18;51.05;;;14.02;;
65477;SDS011;53678;39.642;22.430;2023-06-24T03:27:47;16.10;;;9.65;;
65477;SDS011;53678;39.642;22.430;2023-06-24T03:30:14;14.65;;;10.20;;
65477;SDS011;53678;39.642;22.430;2023-06-24T03:32:42;18.33;;;10.35;;
65477;SDS011;53678;39.642;22.430;2023-06-24T03:35:13;13.70;;;9.65;;
65477;SDS011;53678;39.642;22.430;2023-06-24T03:37:39;12.38;;;9.32;;
65477;SDS011;53678;39.642;22.430;2023-06-24T03:40:05;16.85;;;12.00;;
65477;SDS011;53678;39.642;22.430;2023-06-24T03:42:31;12.32;;;9.18;;
65477;SDS011;53678;39.642;22.430;2023-06-24T03:44:57;15.35;;;9.15;;
65477;SDS011;53678;39.642;22.430;2023-06-24T03:47:23;18.50;;;10.00;;
65477;SDS011;53678;39.642;22.430;2023-06-24T03:49:49;10.38;;;8.82;;
65477;SDS011;53678;39.642;22.430;2023-06-24T03:52:14;13.07;;;8.80;;
65477;SDS011;53678;39.642;22.430;2023-06-24T03:54:44;10.38;;;8.45;;
65477;SDS011;53678;39.642;22.430;2023-06-24T03:57:12;13.40;;;9.40;;
65477;SDS011;53678;39.642;22.430;2023-06-24T03:59:38;15.77;;;10.18;;
65477;SDS011;53678;39.642;22.430;2023-06-24T04:02:07;22.83;;;10.93;;
65477;SDS011;53678;39.642;22.430;2023-06-24T04:04:33;13.77;;;9.00;;
65477;SDS011;53678;39.642;22.430;2023-06-24T04:07:02;15.75;;;10.38;;
65477;SDS011;53678;39.642;22.430;2023-06-24T04:09:29;14.02;;;9.55;;
65477;SDS011;53678;39.642;22.430;2023-06-24T04:11:55;18.15;;;11.23;;
65477;SDS011;53678;39.642;22.430;2023-06-24T04:14:20;15.30;;;9.50;;
65477;SDS011;53678;39.642;22.430;2023-06-24T04:16:46;15.95;;;9.45;;
65477;SDS011;53678;39.642;22.430;2023-06-24T04:19:12;13.57;;;9.27;;
65477;SDS011;53678;39.642;22.430;2023-06-24T04:21:37;14.25;;;8.70;;
65477;SDS011;53678;39.642;22.430;2023-06-24T04:24:03;11.23;;;9.35;;
65477;SDS011;53678;39.642;22.430;2023-06-24T04:26:30;15.00;;;9.20;;
65477;SDS011;53678;39.642;22.430;2023-06-24T04:28:55;10.90;;;8.63;;
65477;SDS011;53678;39.642;22.430;2023-06-24T04:31:21;11.90;;;8.65;;
65477;SDS011;53678;39.642;22.430;2023-06-24T04:33:47;11.48;;;9.18;;
65477;SDS011;53678;39.642;22.430;2023-06-24T04:36:13;13.80;;;9.38;;
65477;SDS011;53678;39.642;22.430;2023-06-24T04:38:39;13.95;;;10.20;;
65477;SDS011;53678;39.642;22.430;2023-06-24T04:41:05;13.23;;;8.90;;
65477;SDS011;53678;39.642;22.430;2023-06-24T04:43:30;17.02;;;8.90;;
65477;SDS011;53678;39.642;22.430;2023-06-24T04:45:56;10.98;;;7.75;;
65477;SDS011;53678;39.642;22.430;2023-06-24T04:48:26;13.95;;;8.02;;
65477;SDS011;53678;39.642;22.430;2023-06-24T04:50:52;10.90;;;7.65;;
65477;SDS011;53678;39.642;22.430;2023-06-24T04:53:20;10.65;;;8.05;;
65477;SDS011;53678;39.642;22.430;2023-06-24T04:55:46;13.10;;;7.57;;
65477;SDS011;53678;39.642;22.430;2023-06-24T04:58:12;10.88;;;7.50;;
65477;SDS011;53678;39.642;22.430;2023-06-24T05:00:37;12.25;;;8.30;;
65477;SDS011;53678;39.642;22.430;2023-06-24T05:03:03;10.60;;;7.50;;
65477;SDS011;53678;39.642;22.430;2023-06-24T05:05:29;12.35;;;7.18;;
65477;SDS011;53678;39.642;22.430;2023-06-24T05:07:54;15.50;;;7.75;;
65477;SDS011;53678;39.642;22.430;2023-06-24T05:10:20;10.13;;;7.60;;
65477;SDS011;53678;39.642;22.430;2023-06-24T05:12:46;13.05;;;8.07;;
65477;SDS011;53678;39.642;22.430;2023-06-24T05:15:12;12.05;;;7.78;;
65477;SDS011;53678;39.642;22.430;2023-06-24T05:17:39;8.40;;;7.15;;
65477;SDS011;53678;39.642;22.430;2023-06-24T05:20:05;11.10;;;7.22;;
65477;SDS011;53678;39.642;22.430;2023-06-24T05:22:31;9.95;;;7.05;;
65477;SDS011;53678;39.642;22.430;2023-06-24T05:24:57;11.75;;;7.28;;
65477;SDS011;53678;39.642;22.430;2023-06-24T05:27:22;8.35;;;6.88;;
65477;SDS011;53678;39.642;22.430;2023-06-24T05:29:48;11.75;;;6.97;;
65477;SDS011;53678;39.642;22.430;2023-06-24T05:32:14;10.40;;;7.32;;
65477;SDS011;53678;39.642;22.430;2023-06-24T05:34:42;10.90;;;7.30;;
65477;SDS011;53678;39.642;22.430;2023-06-24T05:37:08;17.98;;;7.90;;
65477;SDS011;53678;39.642;22.430;2023-06-24T05:39:34;8.02;;;6.63;;
65477;SDS011;53678;39.642;22.430;2023-06-24T05:41:59;12.30;;;7.40;;
65477;SDS011;53678;39.642;22.430;2023-06-24T05:44:25;10.15;;;6.88;;
65477;SDS011;53678;39.642;22.430;2023-06-24T05:46:51;11.65;;;7.35;;
65477;SDS011;53678;39.642;22.430;2023-06-24T05:49:17;10.43;;;6.90;;
65477;SDS011;53678;39.642;22.430;2023-06-24T05:51:43;11.90;;;7.30;;
65477;SDS011;53678;39.642;22.430;2023-06-24T05:54:09;11.57;;;7.20;;
65477;SDS011;53678;39.642;22.430;2023-06-24T05:56:34;8.70;;;6.88;;
65477;SDS011;53678;39.642;22.430;2023-06-24T05:59:01;20.65;;;7.25;;
65477;SDS011;53678;39.642;22.430;2023-06-24T06:01:27;9.55;;;7.43;;
65477;SDS011;53678;39.642;22.430;2023-06-24T06:03:53;11.93;;;6.53;;
65477;SDS011;53678;39.642;22.430;2023-06-24T06:06:19;12.90;;;6.82;;
65477;SDS011;53678;39.642;22.430;2023-06-24T06:08:44;11.60;;;6.75;;
65477;SDS011;53678;39.642;22.430;2023-06-24T06:11:10;7.85;;;6.95;;
65477;SDS011;53678;39.642;22.430;2023-06-24T06:13:36;13.10;;;6.68;;
65477;SDS011;53678;39.642;22.430;2023-06-24T06:16:01;11.40;;;7.40;;
65477;SDS011;53678;39.642;22.430;2023-06-24T06:18:27;12.23;;;7.03;;
65477;SDS011;53678;39.642;22.430;2023-06-24T06:20:53;13.23;;;8.63;;
65477;SDS011;53678;39.642;22.430;2023-06-24T06:23:18;7.55;;;6.30;;
65477;SDS011;53678;39.642;22.430;2023-06-24T06:25:44;14.35;;;7.00;;
65477;SDS011;53678;39.642;22.430;2023-06-24T06:28:10;9.98;;;5.93;;
65477;SDS011;53678;39.642;22.430;2023-06-24T06:30:36;10.32;;;6.47;;
65477;SDS011;53678;39.642;22.430;2023-06-24T06:33:01;11.30;;;6.03;;
65477;SDS011;53678;39.642;22.430;2023-06-24T06:35:27;12.57;;;6.47;;
65477;SDS011;53678;39.642;22.430;2023-06-24T06:37:53;9.77;;;6.47;;
65477;SDS011;53678;39.642;22.430;2023-06-24T06:40:20;6.88;;;5.95;;
65477;SDS011;53678;39.642;22.430;2023-06-24T06:42:47;9.82;;;6.53;;
65477;SDS011;53678;39.642;22.430;2023-06-24T06:45:13;12.68;;;6.40;;
65477;SDS011;53678;39.642;22.430;2023-06-24T06:47:38;7.07;;;6.15;;
65477;SDS011;53678;39.642;22.430;2023-06-24T06:50:04;7.95;;;6.05;;
65477;SDS011;53678;39.642;22.430;2023-06-24T06:52:30;7.68;;;6.35;;
65477;SDS011;53678;39.642;22.430;2023-06-24T06:54:56;19.23;;;7.63;;
65477;SDS011;53678;39.642;22.430;2023-06-24T06:57:22;8.20;;;6.15;;
65477;SDS011;53678;39.642;22.430;2023-06-24T06:59:48;12.63;;;6.50;;
65477;SDS011;53678;39.642;22.430;2023-06-24T07:02:16;12.38;;;7.25;;
65477;SDS011;53678;39.642;22.430;2023-06-24T07:04:42;6.80;;;6.10;;
65477;SDS011;53678;39.642;22.430;2023-06-24T07:07:08;11.50;;;6.53;;
65477;SDS011;53678;39.642;22.430;2023-06-24T07:09:34;11.48;;;6.78;;
65477;SDS011;53678;39.642;22.430;2023-06-24T07:12:00;9.88;;;6.45;;
65477;SDS011;53678;39.642;22.430;2023-06-24T07:14:26;10.85;;;6.60;;
65477;SDS011;53678;39.642;22.430;2023-06-24T07:16:52;8.02;;;6.85;;
65477;SDS011;53678;39.642;22.430;2023-06-24T07:19:18;9.45;;;6.18;;
65477;SDS011;53678;39.642;22.430;2023-06-24T07:21:44;9.25;;;6.45;;
65477;SDS011;53678;39.642;22.430;2023-06-24T07:24:09;9.45;;;6.25;;
65477;SDS011;53678;39.642;22.430;2023-06-24T07:26:35;9.48;;;6.75;;
65477;SDS011;53678;39.642;22.430;2023-06-24T07:29:01;9.60;;;6.13;;
65477;SDS011;53678;39.642;22.430;2023-06-24T07:31:27;9.18;;;6.30;;
65477;SDS011;53678;39.642;22.430;2023-06-24T07:33:53;11.32;;;6.90;;
65477;SDS011;53678;39.642;22.430;2023-06-24T07:36:20;11.45;;;6.55;;
65477;SDS011;53678;39.642;22.430;2023-06-24T07:38:45;12.18;;;6.78;;
65477;SDS011;53678;39.642;22.430;2023-06-24T07:41:12;9.68;;;6.65;;
65477;SDS011;53678;39.642;22.430;2023-06-24T07:43:38;10.00;;;6.40;;
65477;SDS011;53678;39.642;22.430;2023-06-24T07:46:04;10.63;;;5.85;;
65477;SDS011;53678;39.642;22.430;2023-06-24T07:48:30;11.63;;;7.43;;
65477;SDS011;53678;39.642;22.430;2023-06-24T07:50:55;7.72;;;5.72;;
65477;SDS011;53678;39.642;22.430;2023-06-24T07:53:21;7.55;;;5.43;;
65477;SDS011;53678;39.642;22.430;2023-06-24T07:55:47;13.40;;;7.20;;
65477;SDS011;53678;39.642;22.430;2023-06-24T07:58:12;6.93;;;5.63;;
65477;SDS011;53678;39.642;22.430;2023-06-24T08:00:38;12.82;;;5.20;;
65477;SDS011;53678;39.642;22.430;2023-06-24T08:03:05;5.97;;;4.93;;
65477;SDS011;53678;39.642;22.430;2023-06-24T08:05:32;10.02;;;5.60;;
65477;SDS011;53678;39.642;22.430;2023-06-24T08:07:58;12.00;;;5.80;;
65477;SDS011;53678;39.642;22.430;2023-06-24T08:10:25;10.05;;;5.53;;
65477;SDS011;53678;39.642;22.430;2023-06-24T08:12:50;6.75;;;6.05;;
65477;SDS011;53678;39.642;22.430;2023-06-24T08:15:16;8.13;;;5.35;;
65477;SDS011;53678;39.642;22.430;2023-06-24T08:17:42;8.13;;;5.90;;
65477;SDS011;53678;39.642;22.430;2023-06-24T08:20:08;7.65;;;5.10;;
65477;SDS011;53678;39.642;22.430;2023-06-24T08:22:34;7.68;;;5.50;;
65477;SDS011;53678;39.642;22.430;2023-06-24T08:25:00;7.75;;;5.15;;
65477;SDS011;53678;39.642;22.430;2023-06-24T08:27:26;8.43;;;6.07;;
65477;SDS011;53678;39.642;22.430;2023-06-24T08:29:51;7.55;;;5.75;;
65477;SDS011;53678;39.642;22.430;2023-06-24T08:32:17;7.38;;;5.60;;
65477;SDS011;53678;39.642;22.430;2023-06-24T08:34:43;8.05;;;5.55;;
65477;SDS011;53678;39.642;22.430;2023-06-24T08:37:09;13.43;;;5.50;;
65477;SDS011;53678;39.642;22.430;2023-06-24T08:39:35;7.72;;;5.32;;
65477;SDS011;53678;39.642;22.430;2023-06-24T08:42:01;10.70;;;5.72;;
65477;SDS011;53678;39.642;22.430;2023-06-24T08:44:28;7.03;;;5.40;;
65477;SDS011;53678;39.642;22.430;2023-06-24T08:46:53;10.85;;;4.90;;
65477;SDS011;53678;39.642;22.430;2023-06-24T08:51:54;8.32;;;5.28;;
65477;SDS011;53678;39.642;22.430;2023-06-24T08:54:36;6.75;;;4.80;;
65477;SDS011;53678;39.642;22.430;2023-06-24T08:57:04;10.73;;;5.22;;
65477;SDS011;53678;39.642;22.430;2023-06-24T08:59:32;6.20;;;5.55;;
65477;SDS011;53678;39.642;22.430;2023-06-24T09:01:58;5.65;;;4.80;;
65477;SDS011;53678;39.642;22.430;2023-06-24T09:04:24;9.80;;;5.22;;
65477;SDS011;53678;39.642;22.430;2023-06-24T09:06:50;6.25;;;5.18;;
65477;SDS011;53678;39.642;22.430;2023-06-24T09:09:19;6.55;;;4.90;;
65477;SDS011;53678;39.642;22.430;2023-06-24T09:11:52;8.48;;;5.00;;
65477;SDS011;53678;39.642;22.430;2023-06-24T09:14:19;6.30;;;5.20;;
65477;SDS011;53678;39.642;22.430;2023-06-24T09:16:50;7.00;;;4.57;;
65477;SDS011;53678;39.642;22.430;2023-06-24T09:19:21;6.20;;;5.07;;
65477;SDS011;53678;39.642;22.430;2023-06-24T09:21:47;13.50;;;5.72;;
65477;SDS011;53678;39.642;22.430;2023-06-24T09:24:13;6.78;;;5.07;;
65477;SDS011;53678;39.642;22.430;2023-06-24T09:26:42;11.05;;;5.40;;
65477;SDS011;53678;39.642;22.430;2023-06-24T09:29:12;10.98;;;5.72;;
65477;SDS011;53678;39.642;22.430;2023-06-24T09:31:48;10.27;;;5.38;;
65477;SDS011;53678;39.642;22.430;2023-06-24T09:34:18;10.18;;;5.68;;
65477;SDS011;53678;39.642;22.430;2023-06-24T09:36:51;11.85;;;6.05;;
65477;SDS011;53678;39.642;22.430;2023-06-24T09:39:18;6.95;;;5.28;;
65477;SDS011;53678;39.642;22.430;2023-06-24T09:41:48;8.10;;;5.53;;
65477;SDS011;53678;39.642;22.430;2023-06-24T09:44:16;8.77;;;5.13;;
65477;SDS011;53678;39.642;22.430;2023-06-24T09:46:44;7.72;;;5.18;;
65477;SDS011;53678;39.642;22.430;2023-06-24T09:49:11;10.13;;;5.32;;
65477;SDS011;53678;39.642;22.430;2023-06-24T09:51:38;8.40;;;5.30;;
65477;SDS011;53678;39.642;22.430;2023-06-24T09:54:05;6.88;;;5.43;;
65477;SDS011;53678;39.642;22.430;2023-06-24T09:56:36;9.07;;;5.45;;
65477;SDS011;53678;39.642;22.430;2023-06-24T09:59:05;9.80;;;5.88;;
65477;SDS011;53678;39.642;22.430;2023-06-24T10:01:33;9.05;;;5.38;;
65477;SDS011;53678;39.642;22.430;2023-06-24T10:04:08;7.18;;;5.22;;
65477;SDS011;53678;39.642;22.430;2023-06-24T10:06:35;7.75;;;4.90;;
65477;SDS011;53678;39.642;22.430;2023-06-24T10:09:01;6.90;;;5.07;;
65477;SDS011;53678;39.642;22.430;2023-06-24T10:11:29;6.82;;;4.90;;
65477;SDS011;53678;39.642;22.430;2023-06-24T10:13:56;10.10;;;5.72;;
65477;SDS011;53678;39.642;22.430;2023-06-24T10:16:22;8.95;;;5.15;;
65477;SDS011;53678;39.642;22.430;2023-06-24T10:18:48;10.38;;;5.45;;
65477;SDS011;53678;39.642;22.430;2023-06-24T10:21:15;13.75;;;5.13;;
65477;SDS011;53678;39.642;22.430;2023-06-24T10:23:51;6.80;;;5.25;;
65477;SDS011;53678;39.642;22.430;2023-06-24T10:34:24;11.30;;;5.50;;
65477;SDS011;53678;39.642;22.430;2023-06-24T10:36:53;8.50;;;5.20;;
65477;SDS011;53678;39.642;22.430;2023-06-24T10:47:56;6.85;;;5.05;;
65477;SDS011;53678;39.642;22.430;2023-06-24T10:50:28;6.88;;;4.78;;
65477;SDS011;53678;39.642;22.430;2023-06-24T10:52:54;5.35;;;4.60;;
65477;SDS011;53678;39.642;22.430;2023-06-24T10:55:23;6.78;;;5.15;;
65477;SDS011;53678;39.642;22.430;2023-06-24T10:57:51;7.05;;;5.15;;
65477;SDS011;53678;39.642;22.430;2023-06-24T11:00:16;8.80;;;5.30;;
65477;SDS011;53678;39.642;22.430;2023-06-24T11:02:43;6.30;;;5.30;;
65477;SDS011;53678;39.642;22.430;2023-06-24T11:05:10;8.27;;;4.85;;
65477;SDS011;53678;39.642;22.430;2023-06-24T11:07:39;8.73;;;5.90;;
65477;SDS011;53678;39.642;22.430;2023-06-24T11:10:13;8.70;;;5.63;;
65477;SDS011;53678;39.642;22.430;2023-06-24T11:12:40;7.57;;;5.78;;
65477;SDS011;53678;39.642;22.430;2023-06-24T11:15:07;6.35;;;5.47;;
65477;SDS011;53678;39.642;22.430;2023-06-24T11:17:35;11.88;;;6.32;;
65477;SDS011;53678;39.642;22.430;2023-06-24T11:20:02;8.73;;;5.03;;
65477;SDS011;53678;39.642;22.430;2023-06-24T11:22:32;11.30;;;7.68;;
65477;SDS011;53678;39.642;22.430;2023-06-24T11:24:57;16.05;;;13.30;;
65477;SDS011;53678;39.642;22.430;2023-06-24T11:27:28;9.23;;;6.38;;
65477;SDS011;53678;39.642;22.430;2023-06-24T11:29:56;7.85;;;5.95;;
65477;SDS011;53678;39.642;22.430;2023-06-24T11:32:37;8.23;;;5.97;;
65477;SDS011;53678;39.642;22.430;2023-06-24T11:35:08;11.13;;;6.43;;
65477;SDS011;53678;39.642;22.430;2023-06-24T11:37:34;11.82;;;5.80;;
65477;SDS011;53678;39.642;22.430;2023-06-24T11:40:05;6.90;;;5.10;;
65477;SDS011;53678;39.642;22.430;2023-06-24T11:42:32;7.97;;;5.25;;
65477;SDS011;53678;39.642;22.430;2023-06-24T11:45:03;6.68;;;5.00;;
65477;SDS011;53678;39.642;22.430;2023-06-24T11:47:33;12.45;;;5.35;;
65477;SDS011;53678;39.642;22.430;2023-06-24T11:50:01;8.23;;;5.10;;
65477;SDS011;53678;39.642;22.430;2023-06-24T11:52:41;8.43;;;5.03;;
65477;SDS011;53678;39.642;22.430;2023-06-24T11:55:17;7.20;;;4.82;;
65477;SDS011;53678;39.642;22.430;2023-06-24T12:00:27;11.02;;;5.43;;
65477;SDS011;53678;39.642;22.430;2023-06-24T12:02:54;7.80;;;5.32;;
65477;SDS011;53678;39.642;22.430;2023-06-24T12:05:31;8.45;;;5.35;;
65477;SDS011;53678;39.642;22.430;2023-06-24T12:07:59;9.88;;;5.15;;
65477;SDS011;53678;39.642;22.430;2023-06-24T12:10:25;10.00;;;5.03;;
65477;SDS011;53678;39.642;22.430;2023-06-24T12:12:55;8.13;;;5.30;;
65477;SDS011;53678;39.642;22.430;2023-06-24T12:15:22;7.38;;;5.80;;
65477;SDS011;53678;39.642;22.430;2023-06-24T12:17:48;8.07;;;5.32;;
65477;SDS011;53678;39.642;22.430;2023-06-24T12:20:14;8.77;;;5.20;;
65477;SDS011;53678;39.642;22.430;2023-06-24T12:22:41;9.40;;;5.53;;
65477;SDS011;53678;39.642;22.430;2023-06-24T12:25:07;7.63;;;5.80;;
65477;SDS011;53678;39.642;22.430;2023-06-24T12:27:34;7.35;;;5.40;;
65477;SDS011;53678;39.642;22.430;2023-06-24T12:30:03;7.07;;;5.25;;
65477;SDS011;53678;39.642;22.430;2023-06-24T12:32:29;8.30;;;5.40;;
65477;SDS011;53678;39.642;22.430;2023-06-24T12:34:55;7.18;;;5.03;;
65477;SDS011;53678;39.642;22.430;2023-06-24T12:37:21;7.95;;;5.10;;
65477;SDS011;53678;39.642;22.430;2023-06-24T12:39:47;9.05;;;5.22;;
65477;SDS011;53678;39.642;22.430;2023-06-24T12:42:13;10.50;;;5.32;;
65477;SDS011;53678;39.642;22.430;2023-06-24T12:44:39;6.90;;;5.13;;
65477;SDS011;53678;39.642;22.430;2023-06-24T12:47:05;8.70;;;5.32;;
65477;SDS011;53678;39.642;22.430;2023-06-24T12:49:32;8.32;;;5.00;;
65477;SDS011;53678;39.642;22.430;2023-06-24T12:51:58;7.78;;;5.10;;
65477;SDS011;53678;39.642;22.430;2023-06-24T12:54:23;6.80;;;5.25;;
65477;SDS011;53678;39.642;22.430;2023-06-24T12:56:49;6.95;;;5.07;;
65477;SDS011;53678;39.642;22.430;2023-06-24T12:59:16;6.93;;;5.15;;
65477;SDS011;53678;39.642;22.430;2023-06-24T13:01:42;7.72;;;5.25;;
65477;SDS011;53678;39.642;22.430;2023-06-24T13:04:10;5.50;;;4.95;;
65477;SDS011;53678;39.642;22.430;2023-06-24T13:06:36;9.15;;;5.30;;
65477;SDS011;53678;39.642;22.430;2023-06-24T13:09:03;8.95;;;5.38;;
65477;SDS011;53678;39.642;22.430;2023-06-24T13:11:30;6.25;;;4.70;;
65477;SDS011;53678;39.642;22.430;2023-06-24T13:13:55;7.93;;;5.55;;
65477;SDS011;53678;39.642;22.430;2023-06-24T13:16:21;8.60;;;5.22;;
65477;SDS011;53678;39.642;22.430;2023-06-24T13:18:47;7.63;;;5.20;;
65477;SDS011;53678;39.642;22.430;2023-06-24T13:21:13;6.25;;;5.18;;
65477;SDS011;53678;39.642;22.430;2023-06-24T13:23:39;6.05;;;5.25;;
65477;SDS011;53678;39.642;22.430;2023-06-24T13:26:05;6.78;;;5.03;;
65477;SDS011;53678;39.642;22.430;2023-06-24T13:28:32;7.85;;;4.97;;
65477;SDS011;53678;39.642;22.430;2023-06-24T13:30:59;6.63;;;5.28;;
65477;SDS011;53678;39.642;22.430;2023-06-24T13:33:25;8.75;;;5.18;;
65477;SDS011;53678;39.642;22.430;2023-06-24T13:35:51;9.93;;;4.88;;
65477;SDS011;53678;39.642;22.430;2023-06-24T13:38:17;8.00;;;4.93;;
65477;SDS011;53678;39.642;22.430;2023-06-24T13:40:43;5.93;;;5.10;;
65477;SDS011;53678;39.642;22.430;2023-06-24T13:43:09;7.03;;;4.60;;
65477;SDS011;53678;39.642;22.430;2023-06-24T13:45:35;6.70;;;4.80;;
65477;SDS011;53678;39.642;22.430;2023-06-24T13:48:01;5.63;;;4.80;;
65477;SDS011;53678;39.642;22.430;2023-06-24T13:50:28;7.50;;;4.60;;
65477;SDS011;53678;39.642;22.430;2023-06-24T13:52:55;6.07;;;4.80;;
65477;SDS011;53678;39.642;22.430;2023-06-24T13:55:20;7.00;;;5.00;;
65477;SDS011;53678;39.642;22.430;2023-06-24T13:57:47;5.78;;;4.55;;
65477;SDS011;53678;39.642;22.430;2023-06-24T14:00:13;6.05;;;4.63;;
65477;SDS011;53678;39.642;22.430;2023-06-24T14:02:40;5.22;;;4.50;;
65477;SDS011;53678;39.642;22.430;2023-06-24T14:05:06;7.78;;;4.70;;
65477;SDS011;53678;39.642;22.430;2023-06-24T14:07:33;7.32;;;4.43;;
65477;SDS011;53678;39.642;22.430;2023-06-24T14:09:59;6.65;;;4.82;;
65477;SDS011;53678;39.642;22.430;2023-06-24T14:12:25;7.47;;;5.07;;
65477;SDS011;53678;39.642;22.430;2023-06-24T14:14:51;8.30;;;4.65;;
65477;SDS011;53678;39.642;22.430;2023-06-24T14:17:18;7.63;;;5.20;;
65477;SDS011;53678;39.642;22.430;2023-06-24T14:19:43;8.57;;;5.22;;
65477;SDS011;53678;39.642;22.430;2023-06-24T14:22:11;8.45;;;5.05;;
65477;SDS011;53678;39.642;22.430;2023-06-24T14:24:38;5.78;;;4.82;;
65477;SDS011;53678;39.642;22.430;2023-06-24T14:27:05;7.80;;;5.15;;
65477;SDS011;53678;39.642;22.430;2023-06-24T14:29:31;45.90;;;5.45;;
65477;SDS011;53678;39.642;22.430;2023-06-24T14:31:57;45.70;;;5.10;;
65477;SDS011;53678;39.642;22.430;2023-06-24T14:34:23;50.72;;;4.82;;
65477;SDS011;53678;39.642;22.430;2023-06-24T14:36:48;26.58;;;3.85;;
65477;SDS011;53678;39.642;22.430;2023-06-24T14:39:15;30.73;;;4.20;;
65477;SDS011;53678;39.642;22.430;2023-06-24T14:41:48;33.80;;;3.90;;
65477;SDS011;53678;39.642;22.430;2023-06-24T14:44:14;28.33;;;5.13;;
65477;SDS011;53678;39.642;22.430;2023-06-24T14:46:40;29.85;;;5.00;;
65477;SDS011;53678;39.642;22.430;2023-06-24T14:49:06;25.02;;;4.80;;
65477;SDS011;53678;39.642;22.430;2023-06-24T14:51:32;29.58;;;4.07;;
65477;SDS011;53678;39.642;22.430;2023-06-24T14:53:58;35.05;;;4.40;;
65477;SDS011;53678;39.642;22.430;2023-06-24T14:56:24;24.25;;;4.45;;